createdAt,value
2024-01-20T00:00:04.218Z,100449.75
2024-01-20T00:02:32.391Z,100472.38
2024-01-20T00:05:02.037Z,100362.91
2024-01-20T00:07:30.364Z,100455.66
2024-01-20T00:09:58.754Z,100451.88
2024-01-20T00:12:26.898Z,100452.22
2024-01-20T00:14:54.990Z,100397.22
2024-01-20T00:17:25.942Z,100432.81
2024-01-20T00:19:56.786Z,100454.56
2024-01-20T00:22:27.123Z,100408.88
2024-01-20T00:24:57.185Z,100466.41
2024-01-20T00:27:25.366Z,100440.88
2024-01-20T00:29:53.594Z,100479.53
2024-01-20T00:32:22.292Z,100414.25
2024-01-20T00:34:59.928Z,100424.50
2024-01-20T00:37:36.697Z,100459.22
2024-01-20T00:40:06.602Z,100461.38
2024-01-20T00:42:34.791Z,100440.53
2024-01-20T00:45:02.908Z,100466.59
2024-01-20T00:47:31.459Z,100457.97
2024-01-20T00:49:59.910Z,100472.72
2024-01-20T00:52:28.272Z,100416.81
2024-01-20T00:54:57.769Z,100482.97
2024-01-20T00:57:25.884Z,100464.06
2024-01-20T00:59:53.982Z,100493.03
2024-01-20T01:02:22.528Z,100420.91
2024-01-20T01:04:50.803Z,100488.50
2024-01-20T01:07:19.057Z,100482.19
2024-01-20T01:09:47.286Z,100411.53
2024-01-20T01:12:16.978Z,100499.97
2024-01-20T01:14:45.088Z,100441.53
2024-01-20T01:17:13.191Z,100497.06
2024-01-20T01:19:41.326Z,100448.69
2024-01-20T01:22:09.704Z,100497.25
2024-01-20T01:24:38.942Z,100430.88
2024-01-20T01:27:07.904Z,100398.88
2024-01-20T01:29:37.537Z,100427.81
2024-01-20T01:32:06.290Z,100494.22
2024-01-20T01:34:34.466Z,100492.03
2024-01-20T01:37:02.543Z,100436.91
2024-01-20T01:39:30.673Z,100452.50
2024-01-20T01:41:58.774Z,100416.03
2024-01-20T01:44:26.866Z,100500.44
2024-01-20T01:46:56.401Z,100501.88
2024-01-20T01:49:25.339Z,100497.88
2024-01-20T01:51:54.720Z,100510.13
2024-01-20T01:54:24.363Z,100506.50
2024-01-20T01:56:55.262Z,100511.72
2024-01-20T01:59:23.576Z,100501.97
2024-01-20T02:01:51.667Z,100511.84
2024-01-20T02:04:21.308Z,100515.22
2024-01-20T02:06:49.763Z,100511.59
2024-01-20T02:09:19.802Z,100519.50
2024-01-20T02:11:48.556Z,100512.16
2024-01-20T02:14:16.730Z,100501.31
2024-01-20T02:16:44.866Z,100501.31
2024-01-20T02:19:13.248Z,100521.94
2024-01-20T02:21:42.768Z,100519.59
2024-01-20T02:24:13.461Z,100390.38
2024-01-20T02:26:41.651Z,100510.22
2024-01-20T02:29:09.738Z,100514.53
2024-01-20T02:31:40.791Z,100541.16
2024-01-20T02:34:09.052Z,100480.91
2024-01-20T02:36:37.266Z,100539.66
2024-01-20T02:39:05.469Z,100546.13
2024-01-20T02:41:35.017Z,100501.84
2024-01-20T02:44:03.187Z,100512.59
2024-01-20T02:46:31.281Z,100546.34
2024-01-20T02:48:59.598Z,100540.28
2024-01-20T02:51:27.870Z,100473.94
2024-01-20T02:53:56.941Z,100521.88
2024-01-20T02:56:25.734Z,100520.56
2024-01-20T02:58:55.435Z,100531.13
2024-01-20T03:01:23.855Z,100539.59
2024-01-20T03:03:52.212Z,100541.72
2024-01-20T03:06:20.348Z,100543.69
2024-01-20T03:08:48.483Z,100543.31
2024-01-20T03:11:16.602Z,100528.75
2024-01-20T03:13:44.872Z,100542.47
2024-01-20T03:16:14.579Z,100555.53
2024-01-20T03:18:42.688Z,100563.31
2024-01-20T03:21:10.867Z,100569.44
2024-01-20T03:23:38.965Z,100569.94
2024-01-20T03:26:11.520Z,100577.13
2024-01-20T03:28:42.081Z,100454.00
2024-01-20T03:31:10.182Z,100578.69
2024-01-20T03:33:39.851Z,100498.47
2024-01-20T03:36:08.451Z,100581.81
2024-01-20T03:38:36.593Z,100517.78
2024-01-20T03:41:05.082Z,100494.41
2024-01-20T03:43:33.164Z,100585.09
2024-01-20T03:46:01.225Z,100572.50
2024-01-20T03:48:29.472Z,100592.03
2024-01-20T03:50:59.130Z,100598.06
2024-01-20T03:53:27.228Z,100598.41
2024-01-20T03:55:55.289Z,100599.78
2024-01-20T03:58:23.418Z,100582.88
2024-01-20T04:00:51.543Z,100604.19
2024-01-20T04:03:19.857Z,100591.78
2024-01-20T04:05:48.722Z,100602.47
2024-01-20T04:08:18.232Z,100492.31
2024-01-20T04:10:46.429Z,100602.38
2024-01-20T04:13:14.551Z,100600.91
2024-01-20T04:15:42.649Z,100579.69
2024-01-20T04:18:10.903Z,100602.44
2024-01-20T04:20:39.066Z,100607.97
2024-01-20T04:23:07.201Z,100608.47
2024-01-20T04:25:36.706Z,100517.69
2024-01-20T04:28:05.439Z,100604.78
2024-01-20T04:30:33.634Z,100604.94
2024-01-20T04:33:01.936Z,100551.06
2024-01-20T04:35:30.105Z,100588.03
2024-01-20T04:37:58.162Z,100615.75
2024-01-20T04:40:26.271Z,100613.69
2024-01-20T04:42:55.772Z,100617.59
2024-01-20T04:45:23.948Z,100558.34
2024-01-20T04:47:52.312Z,100566.44
2024-01-20T04:50:20.459Z,100625.22
2024-01-20T04:52:48.500Z,100647.34
2024-01-20T04:55:16.742Z,100599.72
2024-01-20T04:57:44.862Z,100662.16
2024-01-20T05:00:15.856Z,100662.47
2024-01-20T05:02:43.984Z,100645.97
2024-01-20T05:05:12.103Z,100664.28
2024-01-20T05:07:40.296Z,100645.25
2024-01-20T05:10:08.813Z,100618.59
2024-01-20T05:12:36.893Z,100631.19
2024-01-20T05:15:10.271Z,100661.56
2024-01-20T05:17:39.888Z,100651.69
2024-01-20T05:20:09.248Z,100681.34
2024-01-20T05:22:37.363Z,100684.63
2024-01-20T05:25:06.231Z,100500.69
2024-01-20T05:27:34.399Z,100685.53
2024-01-20T05:30:02.709Z,100688.97
2024-01-20T05:32:30.954Z,100699.28
2024-01-20T05:35:00.491Z,100704.50
2024-01-20T05:37:28.824Z,100628.75
2024-01-20T05:39:56.924Z,100702.75
2024-01-20T05:42:25.079Z,100719.38
2024-01-20T05:44:53.180Z,100628.75
2024-01-20T05:47:21.299Z,100728.34
2024-01-20T05:49:49.704Z,100592.38
2024-01-20T05:52:19.337Z,100729.75
2024-01-20T05:54:47.465Z,100629.38
2024-01-20T05:57:15.607Z,100731.09
2024-01-20T05:59:43.720Z,100732.31
2024-01-20T06:02:12.049Z,100736.97
2024-01-20T06:04:40.249Z,100750.00
2024-01-20T06:07:08.340Z,100708.78
2024-01-20T06:09:37.885Z,100746.59
2024-01-20T06:12:07.034Z,100760.69
2024-01-20T06:14:35.136Z,100732.38
2024-01-20T06:17:03.256Z,100725.78
2024-01-20T06:19:31.518Z,100606.41
2024-01-20T06:21:59.590Z,100766.06
2024-01-20T06:24:27.720Z,100785.44
2024-01-20T06:26:57.273Z,100721.28
2024-01-20T06:29:25.378Z,100794.00
2024-01-20T06:31:54.160Z,100728.53
2024-01-20T06:34:22.342Z,100774.22
2024-01-20T06:36:50.751Z,100783.63
2024-01-20T06:39:18.909Z,100814.53
2024-01-20T06:41:47.235Z,100819.03
2024-01-20T06:44:16.731Z,100821.72
2024-01-20T06:46:45.290Z,100825.31
2024-01-20T06:49:13.490Z,100825.47
2024-01-20T06:51:43.479Z,100834.31
2024-01-20T06:54:11.883Z,100811.25
2024-01-20T06:56:39.999Z,100844.53
2024-01-20T06:59:08.079Z,100841.56
2024-01-20T07:01:37.549Z,100842.78
2024-01-20T07:04:05.962Z,100838.75
2024-01-20T07:06:34.273Z,100847.59
2024-01-20T07:09:04.086Z,100851.19
2024-01-20T07:11:32.219Z,100752.25
2024-01-20T07:14:00.321Z,100861.66
2024-01-20T07:16:28.432Z,100834.38
2024-01-20T07:18:57.977Z,100870.34
2024-01-20T07:21:26.322Z,100879.63
2024-01-20T07:23:54.501Z,100892.66
2024-01-20T07:26:23.053Z,100896.97
2024-01-20T07:28:51.157Z,100908.19
2024-01-20T07:31:20.061Z,100912.84
2024-01-20T07:33:48.253Z,100895.63
2024-01-20T07:36:18.255Z,100927.25
2024-01-20T07:38:46.383Z,100929.03
2024-01-20T07:41:14.569Z,100894.56
2024-01-20T07:43:42.621Z,100943.56
2024-01-20T07:46:11.671Z,100944.63
2024-01-20T07:48:39.923Z,100951.66
2024-01-20T07:51:08.125Z,100929.91
2024-01-20T07:53:37.639Z,100963.97
2024-01-20T07:56:06.352Z,100961.56
2024-01-20T07:58:34.549Z,100971.00
2024-01-20T08:01:03.014Z,100972.81
2024-01-20T08:03:31.231Z,100978.06
2024-01-20T08:05:59.386Z,100973.88
2024-01-20T08:08:27.651Z,100972.97
2024-01-20T08:10:57.141Z,100977.88
2024-01-20T08:13:25.373Z,100932.88
2024-01-20T08:15:53.497Z,100952.94
2024-01-20T08:18:21.676Z,100869.28
2024-01-20T08:20:49.995Z,100927.94
2024-01-20T08:23:18.079Z,101000.19
2024-01-20T08:25:46.239Z,100988.94
2024-01-20T08:28:15.741Z,101011.28
2024-01-20T08:30:43.875Z,101027.28
2024-01-20T08:33:12.239Z,101031.31
2024-01-20T08:35:40.461Z,101025.44
2024-01-20T08:38:08.536Z,101042.56
2024-01-20T08:40:36.653Z,101035.47
2024-01-20T08:43:05.017Z,101016.06
2024-01-20T08:45:34.558Z,101064.41
2024-01-20T08:48:03.746Z,101054.31
2024-01-20T08:50:31.874Z,101074.25
2024-01-20T08:52:59.991Z,101064.66
2024-01-20T08:55:28.074Z,100857.03
2024-01-20T08:57:58.085Z,101093.75
2024-01-20T09:00:26.276Z,101086.44
2024-01-20T09:02:55.848Z,101071.53
2024-01-20T09:05:23.976Z,101093.66
2024-01-20T09:07:52.105Z,101109.16
2024-01-20T09:10:20.167Z,101116.03
2024-01-20T09:12:48.270Z,101074.25
2024-01-20T09:15:16.528Z,101128.59
2024-01-20T09:17:44.679Z,101135.63
2024-01-20T09:20:14.529Z,101147.03
2024-01-20T09:22:42.656Z,101074.50
2024-01-20T09:25:10.997Z,101149.31
2024-01-20T09:27:39.148Z,101151.44
2024-01-20T09:30:09.069Z,101141.84
2024-01-20T09:32:37.206Z,101167.09
2024-01-20T09:35:05.830Z,101182.69
2024-01-20T09:37:38.265Z,101144.84
2024-01-20T09:40:07.692Z,101182.88
2024-01-20T09:42:36.598Z,101165.34
2024-01-20T09:45:05.474Z,101162.34
2024-01-20T09:47:33.628Z,101186.28
2024-01-20T09:50:01.738Z,101174.88
2024-01-20T09:52:30.837Z,101196.09
2024-01-20T09:55:08.413Z,101200.59
2024-01-20T09:57:38.499Z,101207.97
2024-01-20T10:00:09.669Z,101209.94
2024-01-20T10:02:40.034Z,101215.94
2024-01-20T10:05:11.997Z,101221.06
2024-01-20T10:07:40.216Z,101212.94
2024-01-20T10:10:11.315Z,101238.69
2024-01-20T10:12:39.536Z,101246.94
2024-01-20T10:15:08.711Z,101239.16
2024-01-20T10:17:39.465Z,101277.59
2024-01-20T10:20:08.301Z,101262.69
2024-01-20T10:22:36.437Z,101246.72
2024-01-20T10:25:05.653Z,101259.81
2024-01-20T10:27:35.189Z,101288.09
2024-01-20T10:30:03.450Z,101290.22
2024-01-20T10:32:47.098Z,101291.28
2024-01-20T10:35:20.422Z,101241.66
2024-01-20T10:37:50.806Z,101281.31
2024-01-20T10:40:19.497Z,101301.44
2024-01-20T10:42:56.812Z,101293.19
2024-01-20T10:45:26.502Z,101291.41
2024-01-20T10:48:09.964Z,101294.69
2024-01-20T10:50:47.510Z,101305.16
2024-01-20T10:53:15.789Z,101258.94
2024-01-20T10:55:47.097Z,101315.59
2024-01-20T10:58:19.660Z,101321.69
2024-01-20T11:00:48.195Z,101327.81
2024-01-20T11:03:17.287Z,101333.91
2024-01-20T11:05:49.574Z,101342.72
2024-01-20T11:08:26.424Z,101352.25
2024-01-20T11:10:56.036Z,101321.00
2024-01-20T11:13:28.533Z,101375.72
2024-01-20T11:15:59.169Z,101364.63
2024-01-20T11:18:28.671Z,101335.56
2024-01-20T11:21:01.277Z,101347.97
2024-01-20T11:23:29.850Z,101376.13
2024-01-20T11:25:59.445Z,101371.19
2024-01-20T11:28:33.397Z,101380.81
2024-01-20T11:31:02.453Z,101374.06
2024-01-20T11:33:32.322Z,101379.81
2024-01-20T11:36:02.529Z,101376.19
2024-01-20T11:38:33.426Z,101370.91
2024-01-20T11:41:02.639Z,101369.00
2024-01-20T11:43:32.457Z,101361.38
2024-01-20T11:46:00.914Z,101371.72
2024-01-20T11:48:29.239Z,101321.88
2024-01-20T11:50:58.558Z,101364.75
2024-01-20T11:53:26.791Z,101356.88
2024-01-20T11:55:56.390Z,101378.41
2024-01-20T11:58:24.993Z,101399.44
2024-01-20T12:00:56.148Z,101403.91
2024-01-20T12:03:24.714Z,101374.28
2024-01-20T12:05:53.434Z,101411.16
2024-01-20T12:08:23.005Z,101421.81
2024-01-20T12:10:51.528Z,101432.53
2024-01-20T12:13:19.752Z,101446.41
2024-01-20T12:15:50.743Z,101438.63
2024-01-20T12:18:20.423Z,101413.66
2024-01-20T12:20:49.352Z,101416.06
2024-01-20T12:23:21.516Z,101438.94
2024-01-20T12:25:54.390Z,101438.94
2024-01-20T12:28:23.182Z,101436.53
2024-01-20T12:30:51.325Z,101420.72
2024-01-20T12:33:20.975Z,101368.19
2024-01-20T12:35:49.086Z,101444.91
2024-01-20T12:38:17.469Z,101452.09
2024-01-20T12:40:46.197Z,101453.88
2024-01-20T12:43:14.317Z,101432.78
2024-01-20T12:45:42.456Z,101458.75
2024-01-20T12:48:10.859Z,101438.94
2024-01-20T12:50:40.448Z,101499.88
2024-01-20T12:53:08.671Z,101518.47
2024-01-20T12:55:36.983Z,101526.84
2024-01-20T12:58:05.425Z,101528.75
2024-01-20T13:00:33.580Z,101450.59
2024-01-20T13:03:01.850Z,101520.09
2024-01-20T13:05:30.335Z,101505.56
2024-01-20T13:07:59.902Z,101506.19
2024-01-20T13:10:28.067Z,101444.22
2024-01-20T13:12:56.498Z,101505.03
2024-01-20T13:15:26.402Z,101460.34
2024-01-20T13:17:54.984Z,101480.81
2024-01-20T13:20:23.484Z,101506.69
2024-01-20T13:22:51.566Z,101466.75
2024-01-20T13:25:21.083Z,101517.47
2024-01-20T13:27:49.243Z,101498.00
2024-01-20T13:30:17.529Z,101507.44
2024-01-20T13:32:46.071Z,101537.78
2024-01-20T13:35:14.146Z,101583.78
2024-01-20T13:37:42.272Z,101557.44
2024-01-20T13:40:11.449Z,101598.66
2024-01-20T13:42:43.332Z,101600.81
2024-01-20T13:45:12.282Z,101597.13
2024-01-20T13:47:40.403Z,101613.41
2024-01-20T13:50:09.179Z,101611.03
2024-01-20T13:52:37.581Z,101567.91
2024-01-20T13:55:07.206Z,101620.41
2024-01-20T13:57:35.517Z,101597.75
2024-01-20T14:00:05.872Z,101581.94
2024-01-20T14:02:34.262Z,101649.56
2024-01-20T14:05:04.016Z,101656.56
2024-01-20T14:07:32.612Z,101663.94
2024-01-20T14:10:00.704Z,101662.09
2024-01-20T14:12:28.914Z,101691.34
2024-01-20T14:14:57.035Z,101690.09
2024-01-20T14:17:26.944Z,101694.53
2024-01-20T14:19:55.104Z,101695.66
2024-01-20T14:22:23.943Z,101682.22
2024-01-20T14:24:52.790Z,101535.94
2024-01-20T14:27:20.988Z,101664.34
2024-01-20T14:29:49.124Z,101646.94
2024-01-20T14:32:17.247Z,101631.88
2024-01-20T14:34:46.784Z,101681.25
2024-01-20T14:37:14.956Z,101680.00
2024-01-20T14:39:43.115Z,101695.50
2024-01-20T14:42:11.361Z,101714.28
2024-01-20T14:44:39.597Z,101706.88
2024-01-20T14:47:07.740Z,101720.69
2024-01-20T14:49:35.885Z,101717.81
2024-01-20T14:52:06.161Z,101704.81
2024-01-20T14:54:34.391Z,101729.34
2024-01-20T14:57:02.550Z,101737.00
2024-01-20T14:59:30.800Z,101721.25
2024-01-20T15:01:58.878Z,101731.09
2024-01-20T15:04:28.913Z,101729.00
2024-01-20T15:06:58.109Z,101738.06
2024-01-20T15:09:30.295Z,101738.63
2024-01-20T15:11:58.732Z,101745.38
2024-01-20T15:14:26.836Z,101759.00
2024-01-20T15:16:54.916Z,101763.53
2024-01-20T15:19:22.630Z,101766.44
2024-01-20T15:21:50.790Z,101758.81
2024-01-20T15:24:19.021Z,101761.72
2024-01-20T15:26:48.694Z,101739.94
2024-01-20T15:29:16.883Z,101760.44
2024-01-20T15:31:45.019Z,101755.91
2024-01-20T15:34:13.288Z,101756.63
2024-01-20T15:36:41.582Z,101753.34
2024-01-20T15:39:10.595Z,101778.59
2024-01-20T15:41:38.763Z,101749.72
2024-01-20T15:44:09.214Z,101792.56
2024-01-20T15:46:38.568Z,101794.03
2024-01-20T15:49:08.030Z,101805.47
2024-01-20T15:51:38.482Z,101800.56
2024-01-20T15:54:06.748Z,101808.75
2024-01-20T15:56:42.170Z,101808.94
2024-01-20T15:59:11.966Z,101818.03
2024-01-20T16:01:40.575Z,101831.09
2024-01-20T16:04:09.055Z,101781.31
2024-01-20T16:06:38.180Z,101846.72
2024-01-20T16:09:07.134Z,101841.78
2024-01-20T16:11:35.212Z,101846.53
2024-01-20T16:14:04.850Z,101855.22
2024-01-20T16:16:34.812Z,101816.72
2024-01-20T16:19:03.059Z,101761.88
2024-01-20T16:21:31.393Z,101855.06
2024-01-20T16:23:59.499Z,101795.84
2024-01-20T16:26:27.542Z,101855.25
2024-01-20T16:28:57.133Z,101848.72
2024-01-20T16:31:25.460Z,101843.97
2024-01-20T16:33:56.976Z,101854.34
2024-01-20T16:36:25.205Z,101831.81
2024-01-20T16:38:53.314Z,101857.06
2024-01-20T16:41:21.954Z,101864.47
2024-01-20T16:43:50.051Z,101866.31
2024-01-20T16:46:18.263Z,101849.97
2024-01-20T16:48:46.616Z,101853.22
2024-01-20T16:51:22.544Z,101862.50
2024-01-20T16:53:55.071Z,101784.59
2024-01-20T16:56:23.696Z,101806.75
2024-01-20T16:58:51.759Z,101838.00
2024-01-20T17:01:19.918Z,101831.09
2024-01-20T17:03:48.140Z,101779.69
2024-01-20T17:06:20.810Z,101847.81
2024-01-20T17:08:49.021Z,101856.34
2024-01-20T17:11:17.579Z,101755.16
2024-01-20T17:13:46.123Z,101861.97
2024-01-20T17:16:15.120Z,101858.69
2024-01-20T17:18:44.490Z,101871.75
2024-01-20T17:21:16.464Z,101868.50
2024-01-20T17:23:46.538Z,101843.03
2024-01-20T17:26:14.806Z,101874.28
2024-01-20T17:28:43.055Z,101807.97
2024-01-20T17:31:11.464Z,101856.47
2024-01-20T17:33:39.989Z,101878.28
2024-01-20T17:36:08.458Z,101880.09
2024-01-20T17:38:37.421Z,101879.00
2024-01-20T17:41:07.364Z,101862.81
2024-01-20T17:43:35.495Z,101879.38
2024-01-20T17:46:03.644Z,101884.81
2024-01-20T17:48:31.879Z,101860.97
2024-01-20T17:51:00.172Z,101892.22
2024-01-20T17:53:34.719Z,101840.03
2024-01-20T17:56:04.111Z,101859.28
2024-01-20T17:58:34.125Z,101908.53
2024-01-20T18:01:02.691Z,101914.91
2024-01-20T18:03:31.751Z,101847.66
2024-01-20T18:06:00.104Z,101913.66
2024-01-20T18:08:28.758Z,101913.84
2024-01-20T18:10:56.898Z,101905.81
2024-01-20T18:13:25.154Z,101929.81
2024-01-20T18:15:54.645Z,101928.53
2024-01-20T18:18:23.068Z,101923.28
2024-01-20T18:20:51.589Z,101938.19
2024-01-20T18:23:19.685Z,101906.22
2024-01-20T18:25:47.892Z,101927.50
2024-01-20T18:28:18.782Z,101874.25
2024-01-20T18:30:47.358Z,101917.16
2024-01-20T18:33:17.068Z,101913.53
2024-01-20T18:35:45.232Z,101920.59
2024-01-20T18:38:13.315Z,101913.88
2024-01-20T18:40:42.048Z,101921.66
2024-01-20T18:43:10.162Z,101921.66
2024-01-20T18:45:38.426Z,101917.69
2024-01-20T18:48:07.760Z,101912.38
2024-01-20T18:50:37.385Z,101930.19
2024-01-20T18:53:05.678Z,101942.72
2024-01-20T18:55:33.762Z,101918.50
2024-01-20T18:58:01.928Z,101947.91
2024-01-20T19:00:30.105Z,101961.34
2024-01-20T19:02:58.214Z,101956.00
2024-01-20T19:05:26.334Z,101965.03
2024-01-20T19:07:55.790Z,101954.97
2024-01-20T19:10:23.900Z,101971.75
2024-01-20T19:12:52.000Z,101973.38
2024-01-20T19:15:20.274Z,101972.84
2024-01-20T19:17:50.883Z,101937.75
2024-01-20T19:20:23.409Z,101963.03
2024-01-20T19:22:51.754Z,101945.53
2024-01-20T19:25:21.236Z,102001.88
2024-01-20T19:27:51.101Z,101857.97
2024-01-20T19:30:21.721Z,102001.78
2024-01-20T19:32:50.230Z,101984.66
2024-01-20T19:35:18.497Z,102015.88
2024-01-20T19:37:47.805Z,102009.34
2024-01-20T19:40:16.672Z,102008.44
2024-01-20T19:42:46.365Z,101998.09
2024-01-20T19:45:14.705Z,101985.50
2024-01-20T19:47:42.863Z,101991.25
2024-01-20T19:50:11.995Z,102003.31
2024-01-20T19:52:40.148Z,101921.16
2024-01-20T19:55:09.274Z,101957.88
2024-01-20T19:57:37.791Z,101999.97
2024-01-20T20:00:11.250Z,101990.19
2024-01-20T20:02:39.579Z,101929.72
2024-01-20T20:05:08.093Z,101947.53
2024-01-20T20:07:36.262Z,101991.22
2024-01-20T20:10:05.150Z,101991.06
2024-01-20T20:12:33.413Z,101986.94
2024-01-20T20:15:03.819Z,101962.63
2024-01-20T20:17:34.199Z,101964.84
2024-01-20T20:20:03.104Z,101965.13
2024-01-20T20:22:31.560Z,101965.56
2024-01-20T20:24:59.704Z,101968.50
2024-01-20T20:27:27.929Z,101946.91
2024-01-20T20:29:56.045Z,101964.41
2024-01-20T20:32:25.826Z,101971.16
2024-01-20T20:34:55.441Z,101965.19
2024-01-20T20:37:23.568Z,101966.28
2024-01-20T20:39:51.795Z,101940.97
2024-01-20T20:42:22.750Z,101971.56
2024-01-20T20:44:51.394Z,101970.09
2024-01-20T20:47:19.506Z,101968.28
2024-01-20T20:49:49.527Z,101963.91
2024-01-20T20:52:19.118Z,101978.28
2024-01-20T20:54:47.339Z,101982.13
2024-01-20T20:57:15.653Z,101974.69
2024-01-20T20:59:45.635Z,101980.31
2024-01-20T21:02:14.104Z,101979.75
2024-01-20T21:04:42.208Z,101907.94
2024-01-20T21:07:11.320Z,101983.25
2024-01-20T21:09:44.002Z,101981.44
2024-01-20T21:12:13.934Z,101966.94
2024-01-20T21:14:42.062Z,101969.50
2024-01-20T21:17:10.192Z,101970.22
2024-01-20T21:19:38.404Z,101973.50
2024-01-20T21:22:08.610Z,101966.25
2024-01-20T21:24:36.749Z,101973.88
2024-01-20T21:27:06.731Z,101954.59
2024-01-20T21:29:34.895Z,101975.50
2024-01-20T21:32:03.027Z,101908.44
2024-01-20T21:34:31.154Z,101969.88
2024-01-20T21:36:59.287Z,101909.19
2024-01-20T21:39:29.378Z,101962.41
2024-01-20T21:41:57.488Z,101950.97
2024-01-20T21:44:27.725Z,101964.59
2024-01-20T21:46:56.195Z,101961.16
2024-01-20T21:49:24.487Z,101962.06
2024-01-20T21:51:56.348Z,101937.88
2024-01-20T21:54:24.605Z,101949.88
2024-01-20T21:56:52.965Z,101954.59
2024-01-20T21:59:21.061Z,101951.53
2024-01-20T22:01:50.724Z,101951.34
2024-01-20T22:04:18.972Z,101945.69
2024-01-20T22:06:47.184Z,101960.78
2024-01-20T22:09:15.334Z,101944.97
2024-01-20T22:11:43.492Z,101934.19
2024-01-20T22:14:11.619Z,101921.47
2024-01-20T22:16:39.760Z,101926.00
2024-01-20T22:19:09.448Z,101872.25
2024-01-20T22:21:40.149Z,101914.53
2024-01-20T22:24:08.721Z,101872.06
2024-01-20T22:26:36.963Z,101922.53
2024-01-20T22:29:14.818Z,101920.00
2024-01-20T22:31:48.043Z,101916.34
2024-01-20T22:34:17.684Z,101917.63
2024-01-20T22:36:46.717Z,101911.97
2024-01-20T22:39:15.165Z,101903.06
2024-01-20T22:41:43.315Z,101911.78
2024-01-20T22:44:12.491Z,101896.72
2024-01-20T22:46:40.596Z,101837.72
2024-01-20T22:49:08.767Z,101917.41
2024-01-20T22:51:38.545Z,101913.06
2024-01-20T22:54:06.682Z,101906.50
2024-01-20T22:56:34.801Z,101911.59
2024-01-20T22:59:02.901Z,101905.03
2024-01-20T23:01:31.909Z,101907.94
2024-01-20T23:04:00.303Z,101901.75
2024-01-20T23:06:28.509Z,101899.16
2024-01-20T23:08:58.155Z,101888.63
2024-01-20T23:11:26.268Z,101905.50
2024-01-20T23:13:56.067Z,101866.59
2024-01-20T23:16:24.183Z,101895.44
2024-01-20T23:18:53.895Z,101807.72
2024-01-20T23:21:22.587Z,101887.41
2024-01-20T23:23:50.787Z,101863.44
2024-01-20T23:26:20.325Z,101881.38
2024-01-20T23:28:48.465Z,101873.53
2024-01-20T23:31:16.844Z,101871.50
2024-01-20T23:33:45.034Z,101875.28
2024-01-20T23:36:13.737Z,101849.47
2024-01-20T23:38:41.862Z,101866.31
2024-01-20T23:41:10.031Z,101865.19
2024-01-20T23:43:39.586Z,101855.88
2024-01-20T23:46:07.656Z,101854.75
2024-01-20T23:48:35.806Z,101856.00
2024-01-20T23:51:04.104Z,101864.53
2024-01-20T23:53:32.518Z,101804.22
2024-01-20T23:56:00.630Z,101848.19
2024-01-20T23:58:29.319Z,101829.38
